Time;durP1;ratioP1;P1;durP2;ratioP2;P2;SDS_P1;SDS_P2;PMS_P1;PMS_P2;Temp;Humidity;BMP_temperature;BMP_pressure;BME280_temperature;BME280_humidity;BME280_pressure;Samples;Min_cycle;Max_cycle;Signal;HPM_P1;HPM_P2
2021/12/18 00:02:17;;;;;;;22.50;14.10;;;5.60;99.90;;;;;;5015945;28;20204;-83
2021/12/18 00:04:43;;;;;;;25.20;15.07;;;5.70;99.90;;;;;;5015612;28;20180;-82
2021/12/18 00:07:09;;;;;;;19.67;13.70;;;5.70;99.90;;;;;;5015287;28;20187;-81
2021/12/18 00:09:35;;;;;;;21.77;14.47;;;5.80;99.90;;;;;;5015290;28;20240;-82
2021/12/18 00:12:03;;;;;;;20.87;13.23;;;5.90;99.90;;;;;;5013744;28;20209;-82
2021/12/18 00:14:29;;;;;;;19.40;13.90;;;5.90;99.90;;;;;;5014415;28;20460;-83
2021/12/18 00:16:55;;;;;;;17.93;12.33;;;6.00;99.90;;;;;;5014819;28;20791;-81
2021/12/18 00:19:25;;;;;;;31.77;15.23;;;6.00;99.90;;;;;;5014218;28;20434;-81
2021/12/18 00:21:51;;;;;;;20.10;14.30;;;6.10;99.90;;;;;;5014829;28;20804;-82
2021/12/18 00:24:17;;;;;;;22.37;13.47;;;6.20;99.90;;;;;;5014250;28;20428;-82
2021/12/18 00:26:42;;;;;;;18.97;14.03;;;6.20;99.90;;;;;;5014284;28;20941;-81
2021/12/18 00:29:08;;;;;;;21.80;13.80;;;6.30;99.90;;;;;;5013804;28;20443;-81
2021/12/18 00:31:34;;;;;;;23.00;13.77;;;6.40;99.90;;;;;;5013928;28;20240;-81
2021/12/18 00:34:00;;;;;;;20.07;13.90;;;6.40;99.90;;;;;;5013630;28;20212;-81
2021/12/18 00:36:25;;;;;;;23.07;14.60;;;6.50;99.90;;;;;;5013992;28;20251;-81
2021/12/18 00:38:51;;;;;;;23.87;13.33;;;6.50;99.90;;;;;;5013130;28;20188;-81
2021/12/18 00:44:01;;;;;;;19.43;13.47;;;6.60;99.90;;;;;;5015037;28;20849;-81
2021/12/18 00:46:34;;;;;;;24.43;13.10;;;6.70;99.90;;;;;;5013436;28;20429;-81
2021/12/18 00:49:00;;;;;;;22.43;14.40;;;6.70;99.90;;;;;;5013480;28;20415;-81
2021/12/18 00:51:26;;;;;;;21.07;13.43;;;6.80;99.90;;;;;;5012967;28;20420;-81
2021/12/18 00:53:52;;;;;;;19.63;13.03;;;6.90;99.90;;;;;;5012574;28;20519;-81
2021/12/18 00:56:18;;;;;;;20.00;13.93;;;6.90;99.90;;;;;;5012196;28;20478;-81
2021/12/18 00:58:44;;;;;;;16.37;12.73;;;7.00;99.90;;;;;;5013868;28;20177;-81
2021/12/18 01:01:11;;;;;;;19.97;12.87;;;7.00;99.90;;;;;;5012481;28;20431;-81
2021/12/18 01:03:39;;;;;;;19.80;14.30;;;7.00;99.90;;;;;;5012542;28;20680;-81
2021/12/18 01:06:06;;;;;;;21.70;13.23;;;7.10;99.90;;;;;;5012236;28;20961;-82
2021/12/18 01:08:32;;;;;;;23.77;14.87;;;7.10;99.90;;;;;;5020648;22;20414;-82
2021/12/18 01:11:43;;;;;;;18.47;13.13;;;7.00;99.90;;;;;;4982010;28;20983;-82
2021/12/18 01:24:52;;;;;;;22.30;12.93;;;7.10;99.90;;;;;;4983349;28;20814;-83
2021/12/18 01:27:18;;;;;;;21.93;13.27;;;7.10;99.90;;;;;;4981330;28;20417;-83
2021/12/18 01:29:44;;;;;;;21.17;13.00;;;7.10;99.90;;;;;;4980592;28;20476;-83
2021/12/18 01:32:10;;;;;;;21.63;13.53;;;7.20;99.90;;;;;;4979853;28;20442;-82
2021/12/18 01:34:36;;;;;;;18.23;12.23;;;7.20;99.90;;;;;;4979964;28;20258;-81
2021/12/18 01:37:03;;;;;;;19.20;12.60;;;7.20;99.90;;;;;;4980205;28;20186;-81
2021/12/18 01:39:29;;;;;;;20.30;12.47;;;7.30;99.90;;;;;;4980407;28;20418;-83
2021/12/18 01:52:53;;;;;;;20.23;12.40;;;7.30;99.90;;;;;;4980826;28;20484;-82
2021/12/18 01:55:30;;;;;;;17.50;11.60;;;7.30;99.90;;;;;;4978409;28;20552;-81
2021/12/18 01:57:56;;;;;;;20.47;12.83;;;7.30;99.90;;;;;;4978219;28;20422;-82
2021/12/18 02:00:26;;;;;;;19.03;12.73;;;7.30;99.90;;;;;;4978136;28;20881;-81
2021/12/18 02:02:52;;;;;;;24.07;14.83;;;7.30;99.90;;;;;;4978164;28;20446;-82
2021/12/18 02:05:18;;;;;;;19.93;12.20;;;7.30;99.90;;;;;;4977453;28;20473;-81
2021/12/18 02:07:44;;;;;;;23.03;13.07;;;7.40;99.90;;;;;;4977876;28;20413;-81
2021/12/18 02:10:18;;;;;;;19.70;12.50;;;7.40;99.90;;;;;;4977093;28;20599;-81
2021/12/18 02:20:48;;;;;;;19.83;12.27;;;7.50;99.90;;;;;;4978761;28;20440;-81
2021/12/18 02:23:15;;;;;;;21.27;12.13;;;7.50;99.90;;;;;;4976609;28;20997;-83
2021/12/18 02:25:41;;;;;;;22.03;12.23;;;7.50;99.90;;;;;;4976668;28;20425;-82
2021/12/18 02:28:17;;;;;;;21.50;15.00;;;7.60;99.90;;;;;;4976285;28;20417;-82
2021/12/18 02:30:45;;;;;;;20.77;12.93;;;7.60;99.90;;;;;;4976453;28;20437;-81
2021/12/18 02:33:11;;;;;;;22.33;13.43;;;7.60;99.90;;;;;;4959825;28;20454;-83
2021/12/18 02:35:43;;;;;;;21.97;14.37;;;7.70;99.90;;;;;;4974794;28;20453;-81
2021/12/18 02:38:16;;;;;;;25.63;13.30;;;7.70;99.90;;;;;;4976474;28;20463;-81
2021/12/18 02:43:14;;;;;;;20.30;12.97;;;7.80;99.90;;;;;;4976928;28;20429;-83
2021/12/18 02:45:40;;;;;;;22.00;14.60;;;7.80;99.90;;;;;;4975097;28;20933;-82
2021/12/18 02:48:05;;;;;;;22.70;15.30;;;7.80;99.90;;;;;;4975501;28;20179;-81
2021/12/18 02:50:31;;;;;;;20.90;14.30;;;7.80;99.90;;;;;;4975297;28;20194;-81
2021/12/18 02:52:57;;;;;;;26.23;17.50;;;7.80;99.90;;;;;;4975555;28;20300;-81
2021/12/18 02:55:23;;;;;;;21.20;12.50;;;7.90;99.90;;;;;;4974855;28;20206;-81
2021/12/18 02:57:49;;;;;;;20.90;12.50;;;7.90;99.90;;;;;;4974951;28;20575;-81
2021/12/18 03:00:16;;;;;;;20.53;11.67;;;7.90;99.90;;;;;;4975197;28;20434;-81
2021/12/18 03:02:44;;;;;;;18.90;13.60;;;7.90;99.90;;;;;;4974808;28;20816;-81
2021/12/18 03:05:17;;;;;;;17.27;12.13;;;7.90;99.90;;;;;;4974695;28;20434;-81
2021/12/18 03:07:43;;;;;;;21.87;12.60;;;7.90;99.90;;;;;;4974767;28;20556;-81
2021/12/18 03:25:56;;;;;;;21.23;12.73;;;7.90;99.90;;;;;;4975819;28;20461;-81
2021/12/18 03:28:22;;;;;;;24.43;14.13;;;7.90;99.90;;;;;;4973872;28;20948;-81
2021/12/18 03:30:47;;;;;;;20.70;14.27;;;8.00;99.90;;;;;;4973837;28;20784;-81
2021/12/18 03:33:13;;;;;;;23.20;13.20;;;7.90;99.90;;;;;;4974113;28;20444;-81
2021/12/18 03:35:42;;;;;;;25.00;14.67;;;8.00;99.90;;;;;;4973659;28;20210;-81
2021/12/18 03:38:10;;;;;;;21.00;12.23;;;8.00;99.90;;;;;;4973556;28;20179;-81
2021/12/18 03:40:36;;;;;;;21.10;13.10;;;8.00;99.90;;;;;;4973910;28;20437;-81
2021/12/18 03:43:02;;;;;;;22.63;13.60;;;8.00;99.90;;;;;;4973819;28;20437;-81
2021/12/18 03:45:27;;;;;;;18.67;12.77;;;8.00;99.90;;;;;;4973433;28;20179;-81
2021/12/18 03:47:53;;;;;;;20.37;13.47;;;8.00;99.90;;;;;;4973861;28;20422;-81
2021/12/18 03:50:20;;;;;;;18.67;12.10;;;8.00;99.90;;;;;;4973885;28;20737;-81
2021/12/18 03:52:47;;;;;;;20.80;13.10;;;8.00;99.90;;;;;;4973723;28;20492;-81
2021/12/18 03:55:13;;;;;;;23.67;14.00;;;8.00;99.90;;;;;;4973398;28;20992;-81
2021/12/18 03:57:39;;;;;;;25.33;14.63;;;8.00;99.90;;;;;;4973738;28;20512;-81
2021/12/18 04:00:08;;;;;;;22.90;15.10;;;8.00;99.90;;;;;;4973432;28;20421;-81
2021/12/18 04:02:34;;;;;;;22.43;13.97;;;8.10;99.90;;;;;;4973419;28;20445;-81
2021/12/18 04:04:59;;;;;;;20.90;13.93;;;8.00;99.90;;;;;;4978400;28;20426;-83
2021/12/18 04:07:25;;;;;;;23.83;13.90;;;8.10;99.90;;;;;;4978893;28;20221;-82
2021/12/18 04:09:51;;;;;;;21.67;13.80;;;8.10;99.90;;;;;;4979258;28;20201;-83
2021/12/18 04:12:20;;;;;;;22.37;14.03;;;8.10;99.90;;;;;;4978793;28;20449;-83
2021/12/18 04:14:46;;;;;;;25.43;14.17;;;8.10;99.90;;;;;;4978274;28;20321;-83
2021/12/18 04:17:11;;;;;;;24.93;14.73;;;8.10;99.90;;;;;;4977005;28;20446;-81
2021/12/18 04:19:37;;;;;;;30.07;14.67;;;8.10;99.90;;;;;;4975054;28;20182;-82
2021/12/18 04:22:04;;;;;;;24.37;13.30;;;8.00;99.90;;;;;;4975620;28;20205;-83
2021/12/18 04:24:29;;;;;;;24.63;13.90;;;8.00;99.90;;;;;;4975765;28;20804;-82
2021/12/18 04:26:56;;;;;;;18.93;12.67;;;8.00;99.90;;;;;;4975753;28;20517;-81
2021/12/18 04:29:22;;;;;;;23.00;14.57;;;8.00;99.90;;;;;;4975290;28;20201;-81
2021/12/18 04:31:47;;;;;;;25.60;14.73;;;7.90;99.90;;;;;;4975091;28;20446;-81
2021/12/18 04:34:13;;;;;;;23.00;13.07;;;8.00;99.90;;;;;;4974898;28;20569;-82
2021/12/18 04:36:39;;;;;;;23.73;13.27;;;7.90;99.90;;;;;;4974880;28;20191;-82
2021/12/18 04:39:05;;;;;;;21.97;12.70;;;7.90;99.90;;;;;;4974954;28;20187;-81
2021/12/18 04:41:38;;;;;;;26.33;14.57;;;8.00;99.90;;;;;;4974989;28;20325;-81
2021/12/18 04:44:04;;;;;;;23.00;13.90;;;8.00;99.90;;;;;;4974543;28;20418;-81
2021/12/18 04:46:30;;;;;;;24.27;14.97;;;8.00;99.90;;;;;;4974343;28;20426;-81
2021/12/18 04:48:56;;;;;;;27.77;15.67;;;8.00;99.90;;;;;;4974003;28;20429;-81
2021/12/18 04:51:22;;;;;;;25.87;14.10;;;8.00;99.90;;;;;;4974150;28;20436;-81
2021/12/18 04:53:48;;;;;;;23.50;12.07;;;8.00;99.90;;;;;;4973792;28;20213;-81
2021/12/18 04:56:13;;;;;;;23.40;14.80;;;8.00;99.90;;;;;;4974306;28;20194;-81
2021/12/18 04:58:39;;;;;;;26.10;14.00;;;8.00;99.90;;;;;;4973573;28;20649;-81
2021/12/18 05:01:05;;;;;;;23.20;14.00;;;8.00;99.90;;;;;;4974177;28;20418;-81
2021/12/18 05:03:31;;;;;;;21.37;13.30;;;8.00;99.90;;;;;;4974060;28;20445;-81
2021/12/18 05:06:02;;;;;;;19.13;12.00;;;8.00;99.90;;;;;;4973611;28;20236;-81
2021/12/18 05:08:28;;;;;;;22.33;12.50;;;8.00;99.90;;;;;;4973475;28;20422;-81
2021/12/18 05:10:54;;;;;;;23.83;14.50;;;8.00;99.90;;;;;;4973843;28;20418;-81
2021/12/18 05:13:19;;;;;;;22.23;15.77;;;8.00;99.90;;;;;;4973676;28;20203;-81
2021/12/18 05:15:45;;;;;;;24.73;15.97;;;8.00;99.90;;;;;;4973318;28;20218;-81
2021/12/18 05:18:11;;;;;;;27.40;14.77;;;8.00;99.90;;;;;;4973436;28;20210;-82
2021/12/18 05:20:37;;;;;;;21.53;14.13;;;8.00;99.90;;;;;;4973449;28;20554;-81
2021/12/18 05:23:03;;;;;;;26.30;14.47;;;8.00;99.90;;;;;;4973203;28;20202;-81
2021/12/18 05:25:28;;;;;;;22.63;12.27;;;8.00;99.90;;;;;;4973060;28;20187;-81
2021/12/18 05:27:54;;;;;;;24.20;13.20;;;8.00;99.90;;;;;;4973201;28;20426;-82
2021/12/18 05:30:20;;;;;;;24.83;12.90;;;7.90;99.90;;;;;;4973011;28;20240;-82
2021/12/18 05:32:46;;;;;;;24.03;13.13;;;7.90;99.90;;;;;;4972872;28;20203;-81
2021/12/18 05:35:15;;;;;;;26.40;12.73;;;7.70;99.90;;;;;;4973030;28;20232;-81
2021/12/18 05:37:47;;;;;;;25.80;14.30;;;7.70;99.90;;;;;;4973043;28;20814;-82
2021/12/18 05:40:17;;;;;;;25.80;12.90;;;7.70;99.90;;;;;;4972995;28;20414;-81
2021/12/18 05:42:43;;;;;;;23.67;13.50;;;7.70;99.90;;;;;;4956425;28;20471;-81
2021/12/18 05:45:09;;;;;;;26.60;13.70;;;7.70;99.90;;;;;;4973160;28;20869;-81
2021/12/18 05:47:35;;;;;;;27.50;14.33;;;7.60;99.90;;;;;;4973079;28;20512;-81
2021/12/18 05:50:01;;;;;;;24.93;13.93;;;7.60;99.90;;;;;;4972984;28;20529;-81
2021/12/18 05:52:27;;;;;;;30.87;14.60;;;7.50;99.90;;;;;;4972669;28;20619;-81
2021/12/18 05:54:53;;;;;;;29.40;15.07;;;7.50;99.90;;;;;;4972527;28;20806;-82
2021/12/18 05:57:19;;;;;;;27.37;15.07;;;7.50;99.90;;;;;;4972658;28;20430;-82
2021/12/18 05:59:45;;;;;;;24.90;14.80;;;7.50;99.90;;;;;;4972175;28;20186;-83
2021/12/18 06:02:11;;;;;;;24.37;13.30;;;7.50;99.90;;;;;;4972314;28;20445;-83
2021/12/18 06:04:37;;;;;;;29.73;15.93;;;7.50;99.90;;;;;;4972346;28;20216;-82
2021/12/18 06:07:05;;;;;;;26.80;14.73;;;7.40;99.90;;;;;;4972141;28;20429;-82
2021/12/18 06:09:34;;;;;;;27.37;13.13;;;7.50;99.90;;;;;;4973218;28;20441;-82
2021/12/18 06:12:00;;;;;;;27.20;14.93;;;7.50;99.90;;;;;;4975704;28;20542;-82
2021/12/18 06:14:27;;;;;;;30.03;15.83;;;7.50;99.90;;;;;;4975456;28;20460;-83
2021/12/18 06:16:53;;;;;;;25.20;14.10;;;7.50;99.90;;;;;;4975664;28;20429;-82
2021/12/18 06:19:19;;;;;;;23.60;14.30;;;7.50;99.90;;;;;;4975192;28;20422;-84
2021/12/18 06:21:45;;;;;;;24.63;14.37;;;7.60;99.90;;;;;;4975373;28;20210;-83
2021/12/18 06:24:11;;;;;;;27.63;14.90;;;7.50;99.90;;;;;;4975401;28;20437;-83
2021/12/18 06:26:36;;;;;;;28.20;15.90;;;7.60;99.90;;;;;;4975199;28;20429;-82
2021/12/18 06:29:02;;;;;;;32.50;15.73;;;7.60;99.90;;;;;;4974917;28;20191;-82
2021/12/18 06:31:28;;;;;;;25.93;12.83;;;7.70;99.90;;;;;;4975023;28;20182;-81
2021/12/18 06:33:54;;;;;;;25.90;14.73;;;7.70;99.90;;;;;;4975078;28;20465;-82
2021/12/18 06:36:20;;;;;;;30.50;15.87;;;7.70;99.90;;;;;;4975001;28;20480;-83
2021/12/18 06:38:46;;;;;;;26.63;12.87;;;7.70;99.90;;;;;;4975006;28;20183;-83
2021/12/18 06:41:11;;;;;;;28.43;14.43;;;7.80;99.90;;;;;;4974861;28;20189;-83
2021/12/18 06:43:37;;;;;;;26.13;12.60;;;7.80;99.90;;;;;;4974857;28;20206;-83
2021/12/18 06:46:03;;;;;;;28.67;16.13;;;7.80;99.90;;;;;;4975685;28;20214;-84
2021/12/18 06:48:29;;;;;;;29.57;15.10;;;7.70;99.90;;;;;;4974925;28;20182;-83
2021/12/18 06:50:54;;;;;;;25.80;14.20;;;7.80;99.90;;;;;;4975039;28;20999;-84
2021/12/18 06:53:20;;;;;;;26.17;14.63;;;7.80;99.90;;;;;;4975104;28;20694;-83
2021/12/18 06:55:46;;;;;;;28.40;14.93;;;7.80;99.90;;;;;;4975395;28;20703;-83
2021/12/18 06:58:12;;;;;;;26.53;15.13;;;7.80;99.90;;;;;;4977291;28;20186;-84
2021/12/18 07:00:38;;;;;;;30.53;14.60;;;7.80;99.90;;;;;;4983505;28;20440;-85
2021/12/18 07:03:03;;;;;;;25.90;14.47;;;7.80;99.90;;;;;;4985171;28;20248;-85
2021/12/18 07:05:29;;;;;;;26.53;15.93;;;7.80;99.90;;;;;;4985126;28;20241;-83
2021/12/18 07:07:56;;;;;;;29.60;17.43;;;7.80;99.90;;;;;;4983579;28;20192;-84
2021/12/18 07:10:22;;;;;;;28.53;14.57;;;7.80;99.90;;;;;;4981254;28;20210;-84
2021/12/18 07:12:48;;;;;;;32.10;15.10;;;7.80;99.90;;;;;;4982348;28;20500;-84
2021/12/18 07:15:14;;;;;;;30.93;15.27;;;7.80;99.90;;;;;;4982554;28;20576;-84
2021/12/18 07:17:40;;;;;;;42.40;17.70;;;7.70;99.90;;;;;;4982470;28;20513;-83
2021/12/18 07:20:07;;;;;;;34.40;16.00;;;7.60;99.90;;;;;;4981610;28;20976;-84
2021/12/18 07:22:33;;;;;;;39.60;16.23;;;7.60;99.90;;;;;;4981493;28;20445;-83
2021/12/18 07:24:59;;;;;;;33.33;16.13;;;7.60;99.90;;;;;;4981419;28;20422;-84
2021/12/18 07:27:25;;;;;;;43.27;16.03;;;7.50;99.90;;;;;;4980049;28;20684;-84
2021/12/18 07:29:50;;;;;;;31.90;15.43;;;7.60;99.90;;;;;;4980453;28;20178;-84
2021/12/18 07:32:16;;;;;;;30.60;16.67;;;7.60;99.90;;;;;;4980472;28;20292;-84
2021/12/18 07:34:42;;;;;;;30.20;14.73;;;7.50;99.90;;;;;;4979493;28;20198;-83
2021/12/18 07:37:08;;;;;;;30.87;15.07;;;7.50;99.90;;;;;;4978943;28;20189;-83
2021/12/18 07:39:33;;;;;;;32.57;14.67;;;7.40;99.90;;;;;;4978991;28;20185;-84
2021/12/18 07:41:59;;;;;;;27.70;15.50;;;7.40;99.90;;;;;;4978510;28;20208;-83
2021/12/18 07:44:25;;;;;;;35.87;17.60;;;7.40;99.90;;;;;;4978855;28;20182;-83
2021/12/18 07:46:51;;;;;;;27.90;14.07;;;7.30;99.90;;;;;;4978419;28;20269;-83
2021/12/18 07:49:17;;;;;;;30.00;15.07;;;7.30;99.90;;;;;;4976910;28;20186;-83
2021/12/18 07:51:42;;;;;;;40.07;16.40;;;7.30;99.90;;;;;;4976431;28;20202;-83
2021/12/18 07:54:08;;;;;;;34.10;16.60;;;7.20;99.90;;;;;;4977027;28;20236;-84
2021/12/18 07:56:35;;;;;;;35.50;18.67;;;7.30;99.90;;;;;;4977032;28;20178;-83
2021/12/18 07:59:02;;;;;;;35.30;16.20;;;7.30;99.90;;;;;;4976670;28;20178;-84
2021/12/18 08:01:28;;;;;;;35.60;16.57;;;7.30;99.90;;;;;;4976557;28;20472;-84
2021/12/18 08:03:54;;;;;;;36.73;16.43;;;7.30;99.90;;;;;;4976971;28;20429;-84
2021/12/18 08:06:20;;;;;;;42.00;18.90;;;7.30;99.90;;;;;;4975657;28;20425;-83
2021/12/18 08:08:47;;;;;;;44.10;19.27;;;7.30;99.90;;;;;;4975332;28;20206;-83
2021/12/18 08:11:14;;;;;;;38.00;17.07;;;7.30;99.90;;;;;;4974961;28;20190;-82
2021/12/18 08:13:40;;;;;;;36.33;16.40;;;7.40;99.90;;;;;;4975145;28;20441;-84
2021/12/18 08:16:06;;;;;;;32.73;15.50;;;7.40;99.90;;;;;;4975349;28;20532;-84
2021/12/18 08:18:32;;;;;;;38.33;17.60;;;7.30;99.90;;;;;;4974372;28;20425;-83
2021/12/18 08:20:58;;;;;;;40.47;15.57;;;7.30;99.90;;;;;;4975024;28;20187;-84
2021/12/18 08:23:27;;;;;;;38.67;16.70;;;7.20;99.90;;;;;;4974652;28;20890;-83
2021/12/18 08:25:53;;;;;;;37.30;17.63;;;7.30;99.90;;;;;;4974543;28;20186;-82
2021/12/18 08:28:19;;;;;;;45.97;18.43;;;7.30;99.90;;;;;;4974449;28;20426;-84
2021/12/18 08:30:45;;;;;;;43.63;19.47;;;7.20;99.90;;;;;;4973899;28;20190;-83
2021/12/18 08:33:11;;;;;;;39.93;18.53;;;7.20;99.90;;;;;;4974362;28;20508;-82
2021/12/18 08:35:37;;;;;;;41.90;19.20;;;7.30;99.90;;;;;;4974362;28;20206;-82
2021/12/18 08:38:04;;;;;;;33.50;17.07;;;7.30;99.90;;;;;;4974504;28;20189;-79
2021/12/18 08:40:36;;;;;;;32.47;18.20;;;7.30;99.90;;;;;;4973980;28;20422;-79
2021/12/18 08:43:02;;;;;;;36.63;16.20;;;7.30;99.90;;;;;;4973989;28;20445;-79
2021/12/18 08:45:29;;;;;;;40.10;17.00;;;7.30;99.90;;;;;;4974199;28;20797;-80
2021/12/18 08:47:55;;;;;;;32.70;16.00;;;7.40;99.90;;;;;;4971838;28;20454;-80
2021/12/18 08:50:23;;;;;;;36.63;15.33;;;7.40;99.90;;;;;;4980050;28;20449;-81
2021/12/18 08:52:50;;;;;;;33.47;14.40;;;7.40;99.90;;;;;;4956618;28;20458;-81
2021/12/18 08:55:18;;;;;;;35.43;16.47;;;7.50;99.90;;;;;;4956626;28;20473;-80
2021/12/18 08:57:44;;;;;;;34.07;15.93;;;7.50;99.90;;;;;;4972514;28;20441;-80
2021/12/18 09:00:12;;;;;;;33.77;15.27;;;7.50;99.90;;;;;;4956948;28;20418;-81
2021/12/18 09:02:42;;;;;;;28.80;15.77;;;7.50;99.90;;;;;;4972678;28;20952;-81
2021/12/18 09:05:09;;;;;;;32.87;16.10;;;7.50;99.90;;;;;;4956481;28;20422;-81
2021/12/18 09:07:35;;;;;;;33.43;15.13;;;7.50;99.90;;;;;;4972799;28;20540;-81
2021/12/18 09:10:02;;;;;;;29.90;17.13;;;7.60;99.90;;;;;;4972857;28;20511;-81
2021/12/18 09:12:28;;;;;;;38.60;17.70;;;7.60;99.90;;;;;;4973860;28;20453;-81
2021/12/18 09:14:54;;;;;;;28.70;14.63;;;7.60;99.90;;;;;;4958979;28;20537;-79
2021/12/18 09:17:20;;;;;;;34.23;14.93;;;7.60;99.90;;;;;;4960078;28;20681;-81
2021/12/18 09:19:45;;;;;;;33.17;15.90;;;7.70;99.90;;;;;;4960000;28;20701;-81
2021/12/18 09:22:11;;;;;;;37.60;16.00;;;7.80;99.90;;;;;;4960224;28;20205;-81
2021/12/18 09:24:38;;;;;;;35.00;16.17;;;7.80;99.90;;;;;;4958979;28;20630;-80
2021/12/18 09:27:05;;;;;;;34.27;14.90;;;7.80;99.90;;;;;;4957321;28;20483;-80
2021/12/18 09:29:35;;;;;;;34.00;17.27;;;7.70;99.90;;;;;;4974473;28;20865;-80
2021/12/18 09:32:01;;;;;;;38.80;18.83;;;7.80;99.90;;;;;;4975406;28;20542;-80
2021/12/18 09:34:30;;;;;;;33.97;16.43;;;7.90;99.90;;;;;;4973066;28;20453;-80
2021/12/18 09:36:56;;;;;;;29.40;14.53;;;7.90;99.90;;;;;;4956222;28;20496;-80
2021/12/18 09:39:22;;;;;;;30.07;14.57;;;8.00;99.90;;;;;;4972238;28;20529;-81
2021/12/18 09:41:49;;;;;;;33.17;14.23;;;8.00;99.90;;;;;;4971273;28;20937;-81
2021/12/18 09:44:25;;;;;;;32.80;16.47;;;8.00;99.90;;;;;;4974289;28;20975;-81
2021/12/18 09:46:52;;;;;;;32.40;15.90;;;8.00;99.90;;;;;;4959722;28;20508;-81
2021/12/18 09:49:18;;;;;;;32.03;15.40;;;8.00;99.90;;;;;;4975492;28;20838;-81
2021/12/18 09:51:44;;;;;;;34.30;15.00;;;8.10;99.90;;;;;;4975784;28;20465;-81
2021/12/18 09:54:10;;;;;;;32.83;14.37;;;8.10;99.90;;;;;;4967754;28;20457;-82
2021/12/18 09:56:36;;;;;;;26.67;13.93;;;8.20;99.90;;;;;;4967655;28;20931;-82
2021/12/18 09:59:01;;;;;;;31.93;13.90;;;8.20;99.90;;;;;;4966829;28;20190;-82
2021/12/18 10:01:27;;;;;;;26.60;12.63;;;8.10;99.90;;;;;;4966760;28;20422;-82
2021/12/18 10:03:57;;;;;;;26.70;13.83;;;8.20;99.90;;;;;;4966594;28;20654;-83
2021/12/18 10:06:38;;;;;;;29.77;13.80;;;8.20;99.90;;;;;;4981339;28;20620;-82
2021/12/18 10:09:17;;;;;;;29.90;13.40;;;8.10;99.90;;;;;;4982923;28;20451;-81
2021/12/18 10:11:57;;;;;;;35.13;16.70;;;8.20;99.90;;;;;;4981861;28;20790;-82
2021/12/18 10:14:32;;;;;;;29.30;13.93;;;8.20;99.90;;;;;;4981063;28;20468;-82
2021/12/18 10:16:58;;;;;;;26.13;12.87;;;8.20;99.90;;;;;;4981782;28;20488;-81
2021/12/18 10:19:29;;;;;;;31.77;13.93;;;8.30;99.90;;;;;;4964091;28;20430;-82
2021/12/18 10:22:00;;;;;;;31.80;14.03;;;8.30;99.90;;;;;;4978370;28;20449;-81
2021/12/18 10:24:27;;;;;;;27.77;14.27;;;8.30;99.90;;;;;;4976147;28;20512;-82
2021/12/18 10:26:53;;;;;;;25.73;12.70;;;8.20;99.90;;;;;;4975370;28;20460;-81
2021/12/18 10:29:36;;;;;;;26.93;12.70;;;8.30;99.90;;;;;;4974403;28;20426;-80
2021/12/18 10:32:15;;;;;;;26.37;12.20;;;8.30;99.90;;;;;;4974596;28;20453;-82
2021/12/18 10:34:49;;;;;;;22.07;12.13;;;8.30;99.90;;;;;;4975995;28;20469;-79
2021/12/18 10:37:23;;;;;;;20.73;10.77;;;8.30;99.90;;;;;;4977185;28;20509;-78
2021/12/18 10:39:56;;;;;;;27.40;13.00;;;8.20;99.90;;;;;;4976018;28;20500;-79
2021/12/18 10:42:46;;;;;;;30.50;13.10;;;8.30;99.90;;;;;;4977241;28;20448;-80
2021/12/18 10:45:24;;;;;;;24.30;12.20;;;8.30;99.90;;;;;;4974834;28;20422;-80
2021/12/18 10:48:06;;;;;;;25.83;13.87;;;8.40;99.90;;;;;;4976949;28;20777;-79
2021/12/18 10:50:40;;;;;;;28.40;13.30;;;8.40;99.90;;;;;;4975111;28;20468;-79
2021/12/18 10:53:18;;;;;;;28.20;12.77;;;8.40;99.90;;;;;;4976935;28;20460;-80
2021/12/18 10:55:49;;;;;;;22.27;10.83;;;8.40;99.90;;;;;;4959496;28;20465;-79
2021/12/18 10:58:19;;;;;;;22.63;11.60;;;8.50;99.90;;;;;;4964150;28;20496;-80
2021/12/18 11:00:52;;;;;;;26.40;13.07;;;8.50;99.90;;;;;;4965442;28;20445;-80
2021/12/18 11:03:29;;;;;;;23.37;11.93;;;8.50;99.90;;;;;;4964025;28;20481;-80
2021/12/18 11:06:02;;;;;;;25.20;12.07;;;8.60;99.90;;;;;;4964454;28;20801;-79
2021/12/18 11:08:28;;;;;;;27.90;14.43;;;8.50;99.90;;;;;;4961274;28;20459;-79
2021/12/18 11:13:50;;;;;;;23.70;12.50;;;8.50;99.90;;;;;;4979149;28;20229;-81
2021/12/18 11:16:20;;;;;;;24.83;12.03;;;8.50;99.90;;;;;;4960491;28;20437;-80
2021/12/18 11:18:47;;;;;;;26.60;13.77;;;8.40;99.90;;;;;;4959487;28;20528;-79
2021/12/18 11:21:14;;;;;;;24.57;13.17;;;8.50;99.90;;;;;;4979157;28;20525;-80
2021/12/18 11:23:55;;;;;;;28.67;14.87;;;8.60;99.90;;;;;;4989928;28;20513;-81
2021/12/18 11:26:23;;;;;;;28.97;11.40;;;8.70;99.90;;;;;;4959671;29;20905;-81
2021/12/18 11:28:51;;;;;;;23.40;11.90;;;8.60;99.90;;;;;;4959945;28;20529;-80
2021/12/18 11:31:18;;;;;;;22.20;11.93;;;8.70;99.90;;;;;;4977259;28;20434;-80
2021/12/18 11:33:44;;;;;;;23.40;13.27;;;8.70;99.90;;;;;;4977626;28;20978;-80
2021/12/18 11:36:11;;;;;;;23.60;11.60;;;8.70;99.90;;;;;;4976032;28;20803;-80
2021/12/18 11:38:41;;;;;;;29.17;14.80;;;8.70;99.90;;;;;;4972947;28;20460;-80
2021/12/18 11:41:14;;;;;;;22.90;12.07;;;8.70;99.90;;;;;;4974105;28;20452;-81
2021/12/18 11:43:44;;;;;;;25.33;14.27;;;8.60;99.90;;;;;;4986065;28;20496;-80
2021/12/18 11:46:33;;;;;;;29.37;13.47;;;8.60;99.90;;;;;;4962230;28;20452;-79
2021/12/18 11:49:05;;;;;;;26.13;12.47;;;8.60;99.90;;;;;;4982439;28;20445;-78
2021/12/18 11:51:32;;;;;;;22.27;11.50;;;8.70;99.90;;;;;;4965942;28;20436;-81
2021/12/18 11:54:03;;;;;;;21.97;12.33;;;8.80;99.90;;;;;;4978104;28;20449;-78
2021/12/18 11:56:49;;;;;;;19.30;10.47;;;8.70;99.90;;;;;;4953763;28;20814;-78
2021/12/18 11:59:35;;;;;;;20.57;11.10;;;8.70;99.90;;;;;;4976931;28;20480;-77
2021/12/18 12:02:01;;;;;;;22.47;11.93;;;8.60;99.90;;;;;;4982373;28;20484;-78
2021/12/18 12:04:26;;;;;;;17.53;11.37;;;8.70;99.90;;;;;;4995567;28;20433;-78
2021/12/18 12:06:52;;;;;;;16.00;9.63;;;8.70;99.90;;;;;;4982411;28;20689;-79
2021/12/18 12:09:33;;;;;;;15.37;10.20;;;8.80;99.90;;;;;;4979411;28;20209;-79
2021/12/18 12:12:08;;;;;;;21.37;9.90;;;8.80;99.90;;;;;;4982305;28;20455;-78
2021/12/18 12:14:35;;;;;;;17.93;10.00;;;8.90;99.90;;;;;;4981984;28;20448;-78
2021/12/18 12:17:01;;;;;;;19.37;9.23;;;8.90;99.90;;;;;;4996042;28;20467;-79
2021/12/18 12:19:36;;;;;;;18.60;10.37;;;9.00;99.90;;;;;;4996495;28;20417;-78
2021/12/18 12:22:09;;;;;;;19.80;9.27;;;9.00;99.90;;;;;;4997866;28;20532;-79
2021/12/18 12:24:55;;;;;;;20.77;10.00;;;9.00;99.90;;;;;;4985976;28;20436;-78
2021/12/18 12:27:25;;;;;;;18.37;9.30;;;9.00;99.90;;;;;;4979069;28;20951;-80
2021/12/18 12:29:52;;;;;;;25.03;10.90;;;9.00;99.90;;;;;;4994732;28;20447;-79
2021/12/18 12:32:20;;;;;;;24.40;11.20;;;9.00;99.90;;;;;;4978905;28;20933;-80
2021/12/18 12:35:05;;;;;;;18.53;10.63;;;9.00;99.90;;;;;;4977394;28;20487;-82
2021/12/18 12:37:40;;;;;;;22.53;11.60;;;9.00;99.90;;;;;;4977090;28;20951;-84
2021/12/18 12:40:17;;;;;;;22.27;10.93;;;9.00;99.90;;;;;;4977669;28;20500;-82
2021/12/18 12:43:11;;;;;;;23.73;11.27;;;9.10;99.90;;;;;;4977567;28;20472;-82
2021/12/18 12:45:39;;;;;;;23.60;12.67;;;9.00;99.90;;;;;;4994744;28;20437;-81
2021/12/18 12:48:05;;;;;;;22.03;9.50;;;9.10;99.90;;;;;;4989805;28;20432;-82
2021/12/18 12:50:32;;;;;;;20.07;9.43;;;9.10;99.90;;;;;;4984817;28;20444;-81
2021/12/18 12:53:05;;;;;;;18.40;9.80;;;9.10;99.90;;;;;;4984708;28;20846;-81
2021/12/18 12:55:42;;;;;;;20.17;11.87;;;9.10;99.90;;;;;;4979378;28;20477;-82
2021/12/18 12:58:20;;;;;;;16.13;8.63;;;9.10;99.90;;;;;;4985680;28;20432;-81
2021/12/18 13:00:55;;;;;;;18.63;10.27;;;9.10;99.90;;;;;;4945795;29;20450;-80
2021/12/18 13:03:24;;;;;;;21.40;10.90;;;9.00;99.90;;;;;;4979652;28;20542;-81
2021/12/18 13:06:03;;;;;;;21.30;10.17;;;9.00;99.90;;;;;;4947758;29;20446;-80
2021/12/18 13:08:32;;;;;;;20.07;9.33;;;9.00;99.90;;;;;;4948163;29;20799;-81
2021/12/18 13:11:00;;;;;;;29.10;13.27;;;9.00;99.90;;;;;;4945553;29;20441;-80
2021/12/18 13:13:29;;;;;;;23.00;12.50;;;8.90;99.90;;;;;;4940240;29;20477;-80
2021/12/18 13:16:04;;;;;;;25.97;14.03;;;8.90;99.90;;;;;;4978410;23;20510;-86
2021/12/18 13:18:35;;;;;;;18.00;11.40;;;9.00;99.90;;;;;;4999476;28;20498;-81
2021/12/18 13:21:23;;;;;;;22.47;12.50;;;9.00;99.90;;;;;;4999418;28;20416;-81
2021/12/18 13:24:07;;;;;;;22.57;11.07;;;9.00;99.90;;;;;;4983168;28;20421;-80
2021/12/18 13:26:34;;;;;;;27.43;12.67;;;9.10;99.90;;;;;;5000044;28;20428;-80
2021/12/18 13:29:02;;;;;;;27.87;11.27;;;9.10;99.90;;;;;;5000265;28;20474;-80
2021/12/18 13:31:33;;;;;;;27.10;11.90;;;9.10;99.90;;;;;;5000819;28;20444;-81
2021/12/18 13:34:03;;;;;;;23.53;12.10;;;9.10;99.90;;;;;;4999989;28;20484;-80
2021/12/18 13:36:42;;;;;;;22.83;11.80;;;9.10;99.90;;;;;;4999078;28;20437;-80
2021/12/18 13:39:10;;;;;;;26.03;10.63;;;9.10;99.90;;;;;;4999681;28;20942;-81